createdAt,value
2023-02-19T00:01:10.632Z,99520.86
2023-02-19T00:03:52.316Z,99519.24
2023-02-19T00:06:25.684Z,99519.57
2023-02-19T00:08:58.089Z,99518.98
2023-02-19T00:11:32.015Z,99521.89
2023-02-19T00:14:05.270Z,99522.17
2023-02-19T00:16:39.717Z,99517.77
2023-02-19T00:19:16.615Z,99518.68
2023-02-19T00:21:49.683Z,99521.14
2023-02-19T00:24:22.246Z,99524.85
2023-02-19T00:26:54.586Z,99528.13
2023-02-19T00:29:26.871Z,99527.51
2023-02-19T00:32:00.240Z,99528.01
2023-02-19T00:34:32.564Z,99527.33
2023-02-19T00:37:04.715Z,99530.59
2023-02-19T00:39:37.603Z,99529.41
2023-02-19T00:42:09.906Z,99529.50
2023-02-19T00:44:42.022Z,99524.77
2023-02-19T00:47:14.223Z,99528.96
2023-02-19T00:49:46.560Z,99531.89
2023-02-19T00:52:18.784Z,99528.45
2023-02-19T00:54:51.028Z,99533.23
2023-02-19T00:57:23.061Z,99537.09
2023-02-19T00:59:55.359Z,99542.02
2023-02-19T01:02:27.847Z,99542.24
2023-02-19T01:05:00.832Z,99539.88
2023-02-19T01:07:32.864Z,99540.33
2023-02-19T01:10:06.596Z,99530.77
2023-02-19T01:12:38.808Z,99536.33
2023-02-19T01:15:11.782Z,99530.42
2023-02-19T01:17:43.890Z,99520.90
2023-02-19T01:20:16.056Z,99515.98
2023-02-19T01:22:48.322Z,99505.11
2023-02-19T01:25:20.817Z,99490.40
2023-02-19T01:27:52.867Z,99485.79
2023-02-19T01:30:25.102Z,99481.33
2023-02-19T01:32:57.358Z,99483.92
2023-02-19T01:35:29.685Z,99484.10
2023-02-19T01:38:02.505Z,99481.35
2023-02-19T01:40:34.677Z,99482.94
2023-02-19T01:43:12.296Z,99488.08
2023-02-19T01:45:46.551Z,99487.42
2023-02-19T01:48:22.315Z,99487.13
2023-02-19T01:50:59.697Z,99476.58
2023-02-19T01:53:38.867Z,99472.83
2023-02-19T01:56:11.926Z,99466.11
2023-02-19T01:58:45.165Z,99467.32
2023-02-19T02:01:18.458Z,99463.33
2023-02-19T02:03:53.041Z,99458.36
2023-02-19T02:06:28.664Z,99453.94
2023-02-19T02:09:20.865Z,99451.37
2023-02-19T02:11:54.730Z,99449.81
2023-02-19T02:14:31.517Z,99452.00
2023-02-19T02:17:13.713Z,99448.57
2023-02-19T02:20:13.769Z,99444.44
2023-02-19T02:22:50.827Z,99434.15
2023-02-19T02:25:44.424Z,99422.70
2023-02-19T02:28:42.365Z,99408.95
2023-02-19T02:31:18.443Z,99405.91
2023-02-19T02:33:52.357Z,99393.98
2023-02-19T02:36:28.724Z,99378.52
2023-02-19T02:39:05.480Z,99380.45
2023-02-19T02:41:45.465Z,99378.19
2023-02-19T02:44:17.736Z,99383.11
2023-02-19T02:46:51.828Z,99385.14
2023-02-19T02:49:26.081Z,99386.71
2023-02-19T02:52:20.925Z,99386.23
2023-02-19T02:55:05.426Z,99384.97
2023-02-19T02:57:38.386Z,99384.35
2023-02-19T03:00:13.418Z,99386.88
2023-02-19T03:02:46.823Z,99383.80
2023-02-19T03:05:39.893Z,99385.29
2023-02-19T03:08:16.904Z,99388.96
2023-02-19T03:10:56.602Z,99391.29
2023-02-19T03:13:53.045Z,99392.33
2023-02-19T03:16:50.386Z,99392.35
2023-02-19T03:19:24.606Z,99392.05
2023-02-19T03:22:10.390Z,99394.88
2023-02-19T03:25:04.129Z,99403.09
2023-02-19T03:27:39.814Z,99406.88
2023-02-19T03:30:18.166Z,99395.93
2023-02-19T03:32:56.274Z,99396.89
2023-02-19T03:35:31.808Z,99393.77
2023-02-19T03:38:10.502Z,99390.84
2023-02-19T03:40:46.686Z,99390.19
2023-02-19T03:43:23.290Z,99378.86
2023-02-19T03:46:06.068Z,99367.02
2023-02-19T03:48:42.645Z,99368.36
2023-02-19T03:51:27.939Z,99365.94
2023-02-19T03:54:12.580Z,99362.64
2023-02-19T03:56:51.726Z,99351.10
2023-02-19T03:59:33.616Z,99345.22
2023-02-19T04:02:08.893Z,99350.10
2023-02-19T04:04:40.933Z,99350.45
2023-02-19T04:07:14.632Z,99349.53
2023-02-19T04:09:50.798Z,99351.51
2023-02-19T04:12:24.909Z,99347.48
2023-02-19T04:15:01.543Z,99347.19
2023-02-19T04:17:37.511Z,99337.45
2023-02-19T04:20:12.667Z,99335.88
2023-02-19T04:22:45.277Z,99332.69
2023-02-19T04:25:17.613Z,99325.08
2023-02-19T04:27:50.310Z,99315.59
2023-02-19T04:30:23.494Z,99310.63
2023-02-19T04:32:55.663Z,99308.08
2023-02-19T04:35:27.785Z,99295.61
2023-02-19T04:38:00.400Z,99276.68
2023-02-19T04:40:32.674Z,99274.22
2023-02-19T04:43:04.762Z,99273.47
2023-02-19T04:45:38.212Z,99271.71
2023-02-19T04:48:10.850Z,99272.51
2023-02-19T04:50:43.560Z,99272.48
2023-02-19T04:53:15.722Z,99264.91
2023-02-19T04:55:48.673Z,99262.11
2023-02-19T04:58:21.863Z,99261.42
2023-02-19T05:00:56.585Z,99263.21
2023-02-19T05:03:28.771Z,99271.34
2023-02-19T05:06:03.332Z,99272.41
2023-02-19T05:08:35.495Z,99269.52
2023-02-19T05:11:10.810Z,99263.83
2023-02-19T05:13:43.475Z,99254.88
2023-02-19T05:16:17.432Z,99253.01
2023-02-19T05:18:49.840Z,99257.77
2023-02-19T05:21:22.274Z,99260.69
2023-02-19T05:23:55.229Z,99251.44
2023-02-19T05:26:27.371Z,99250.77
2023-02-19T05:29:00.617Z,99257.44
2023-02-19T05:31:33.970Z,99255.73
2023-02-19T05:34:06.503Z,99258.02
2023-02-19T05:36:38.932Z,99260.48
2023-02-19T05:39:12.902Z,99259.46
2023-02-19T05:41:45.545Z,99266.29
2023-02-19T05:44:17.712Z,99269.91
2023-02-19T05:46:49.847Z,99275.52
2023-02-19T05:49:22.162Z,99280.21
2023-02-19T05:51:54.901Z,99279.48
2023-02-19T05:54:29.576Z,99274.02
2023-02-19T05:57:01.959Z,99270.16
2023-02-19T05:59:34.272Z,99260.05
2023-02-19T06:02:06.341Z,99261.03
2023-02-19T06:04:39.016Z,99251.36
2023-02-19T06:07:11.097Z,99247.92
2023-02-19T06:09:43.271Z,99248.77
2023-02-19T06:12:15.524Z,99249.92
2023-02-19T06:14:47.730Z,99250.46
2023-02-19T06:17:20.090Z,99250.85
2023-02-19T06:19:52.540Z,99248.23
2023-02-19T06:22:25.215Z,99255.96
2023-02-19T06:24:57.713Z,99258.03
2023-02-19T06:27:30.014Z,99257.11
2023-02-19T06:30:02.266Z,99259.99
2023-02-19T06:32:34.521Z,99252.83
2023-02-19T06:35:07.323Z,99251.34
2023-02-19T06:37:40.347Z,99250.38
2023-02-19T06:40:13.708Z,99252.61
2023-02-19T06:42:45.959Z,99252.66
2023-02-19T06:45:18.134Z,99246.73
2023-02-19T06:47:50.342Z,99252.08
2023-02-19T06:50:22.595Z,99248.87
2023-02-19T06:52:54.738Z,99245.11
2023-02-19T06:55:27.046Z,99249.64
2023-02-19T06:57:59.328Z,99253.05
2023-02-19T07:00:31.565Z,99245.00
2023-02-19T07:03:05.527Z,99240.51
2023-02-19T07:05:37.966Z,99240.33
2023-02-19T07:08:10.609Z,99229.41
2023-02-19T07:10:42.813Z,99227.51
2023-02-19T07:13:15.164Z,99228.60
2023-02-19T07:15:47.377Z,99227.23
2023-02-19T07:18:19.796Z,99232.08
2023-02-19T07:20:52.065Z,99228.71
2023-02-19T07:23:24.445Z,99225.11
2023-02-19T07:25:56.542Z,99224.12
2023-02-19T07:28:28.815Z,99222.64
2023-02-19T07:31:05.372Z,99225.16
2023-02-19T07:33:37.626Z,99218.06
2023-02-19T07:36:12.043Z,99220.06
2023-02-19T07:38:44.649Z,99212.94
2023-02-19T07:41:17.317Z,99211.86
2023-02-19T07:43:49.570Z,99209.05
2023-02-19T07:46:22.350Z,99208.00
2023-02-19T07:48:54.762Z,99207.85
2023-02-19T07:51:27.522Z,99211.41
2023-02-19T07:54:00.292Z,99212.05
2023-02-19T07:56:32.708Z,99210.30
2023-02-19T07:59:04.968Z,99214.23
2023-02-19T08:01:56.056Z,99214.37
2023-02-19T08:04:28.356Z,99216.81
2023-02-19T08:07:00.489Z,99215.48
2023-02-19T08:09:32.766Z,99219.82
2023-02-19T08:12:22.892Z,99224.55
2023-02-19T08:14:55.383Z,99231.88
2023-02-19T08:17:27.833Z,99235.88
2023-02-19T08:20:00.044Z,99237.73
2023-02-19T08:22:32.238Z,99235.77
2023-02-19T08:25:04.445Z,99241.86
2023-02-19T08:27:36.681Z,99239.32
2023-02-19T08:30:10.604Z,99244.64
2023-02-19T08:32:42.921Z,99255.86
2023-02-19T08:35:15.403Z,99258.95
2023-02-19T08:37:47.563Z,99258.11
2023-02-19T08:40:20.087Z,99258.45
2023-02-19T08:42:52.516Z,99259.75
2023-02-19T08:45:24.623Z,99262.14
2023-02-19T08:47:56.728Z,99263.85
2023-02-19T08:50:29.130Z,99259.73
2023-02-19T08:53:02.793Z,99257.45
2023-02-19T08:55:35.483Z,99257.92
2023-02-19T08:58:08.175Z,99261.65
2023-02-19T09:00:40.454Z,99260.75
2023-02-19T09:03:13.705Z,99260.04
2023-02-19T09:05:46.962Z,99262.34
2023-02-19T09:08:19.665Z,99261.18
2023-02-19T09:11:03.499Z,99256.92
2023-02-19T09:13:35.927Z,99259.29
2023-02-19T09:16:09.089Z,99264.05
2023-02-19T09:18:41.426Z,99273.00
2023-02-19T09:21:13.904Z,99277.65
2023-02-19T09:23:46.327Z,99286.42
2023-02-19T09:26:18.476Z,99289.22
2023-02-19T09:28:50.755Z,99297.07
2023-02-19T09:31:23.055Z,99298.23
2023-02-19T09:33:55.194Z,99301.57
2023-02-19T09:36:27.394Z,99305.00
2023-02-19T09:39:00.778Z,99311.56
2023-02-19T09:41:35.920Z,99314.64
2023-02-19T09:44:12.058Z,99317.44
2023-02-19T09:46:44.517Z,99325.10
2023-02-19T09:49:19.912Z,99337.21
2023-02-19T09:51:57.592Z,99342.67
2023-02-19T09:54:31.731Z,99344.28
2023-02-19T09:57:05.899Z,99347.20
2023-02-19T09:59:45.651Z,99343.78
2023-02-19T10:02:20.807Z,99349.50
2023-02-19T10:04:55.011Z,99355.73
2023-02-19T10:07:31.779Z,99366.95
2023-02-19T10:10:19.690Z,99370.34
2023-02-19T10:12:55.417Z,99379.73
2023-02-19T10:15:33.177Z,99385.39
2023-02-19T10:18:08.855Z,99391.11
2023-02-19T10:20:43.255Z,99391.69
2023-02-19T10:23:17.910Z,99393.58
2023-02-19T10:25:55.014Z,99394.91
2023-02-19T10:28:31.631Z,99402.08
2023-02-19T10:31:06.406Z,99411.46
2023-02-19T10:33:52.567Z,99418.50
2023-02-19T10:36:34.259Z,99424.15
2023-02-19T10:39:29.660Z,99432.48
2023-02-19T10:42:02.162Z,99439.17
2023-02-19T10:44:43.541Z,99442.83
2023-02-19T10:47:22.045Z,99439.89
2023-02-19T10:49:56.893Z,99440.30
2023-02-19T10:52:35.365Z,99438.92
2023-02-19T10:55:32.062Z,99448.84
2023-02-19T10:58:27.084Z,99452.91
2023-02-19T11:04:18.927Z,99468.77
2023-02-19T11:06:51.254Z,99475.19
2023-02-19T11:09:36.122Z,99469.96
2023-02-19T11:12:10.788Z,99478.89
2023-02-19T11:14:46.228Z,99480.77
2023-02-19T11:17:26.345Z,99486.84
2023-02-19T11:20:00.791Z,99497.14
2023-02-19T11:22:39.702Z,99515.33
2023-02-19T11:25:25.587Z,99517.80
2023-02-19T11:28:00.512Z,99522.02
2023-02-19T11:30:44.041Z,99524.73
2023-02-19T11:33:28.636Z,99532.18
2023-02-19T11:36:27.230Z,99531.56
2023-02-19T11:39:03.680Z,99535.16
2023-02-19T11:42:09.367Z,99543.87
2023-02-19T11:44:55.474Z,99549.60
2023-02-19T11:48:04.663Z,99555.34
2023-02-19T11:50:51.967Z,99555.49
2023-02-19T11:53:28.632Z,99554.52
2023-02-19T11:56:12.391Z,99555.46
2023-02-19T11:59:05.110Z,99550.44
2023-02-19T12:02:12.833Z,99561.45
2023-02-19T12:05:12.283Z,99572.40
2023-02-19T12:08:37.217Z,99579.85
2023-02-19T12:11:38.073Z,99576.08
2023-02-19T12:14:28.099Z,99578.73
2023-02-19T12:17:07.035Z,99586.63
2023-02-19T12:19:58.544Z,99596.02
2023-02-19T12:22:42.029Z,99602.86
2023-02-19T12:25:47.581Z,99603.17
2023-02-19T12:28:35.400Z,99604.25
2023-02-19T12:31:28.565Z,99603.26
2023-02-19T12:34:30.815Z,99611.40
2023-02-19T12:37:15.728Z,99614.05
2023-02-19T12:39:59.564Z,99618.63
2023-02-19T12:42:47.343Z,99626.13
2023-02-19T12:45:25.875Z,99627.53
2023-02-19T12:48:06.572Z,99630.31
2023-02-19T12:50:43.779Z,99631.06
2023-02-19T12:53:35.691Z,99632.73
2023-02-19T12:56:15.912Z,99632.69
2023-02-19T12:58:52.839Z,99642.32
2023-02-19T13:01:30.305Z,99641.67
2023-02-19T13:04:16.163Z,99651.24
2023-02-19T13:06:54.117Z,99657.34
2023-02-19T13:09:31.191Z,99660.52
2023-02-19T13:12:09.067Z,99664.90
2023-02-19T13:14:46.401Z,99670.42
2023-02-19T13:17:28.257Z,99670.76
2023-02-19T13:20:09.960Z,99674.67
2023-02-19T13:23:05.366Z,99678.02
2023-02-19T13:25:55.174Z,99679.61
2023-02-19T13:28:50.161Z,99679.34
2023-02-19T13:31:33.342Z,99681.25
2023-02-19T13:34:18.861Z,99682.83
2023-02-19T13:36:52.164Z,99685.35
2023-02-19T13:39:25.933Z,99685.35
2023-02-19T13:42:00.330Z,99692.51
2023-02-19T13:44:35.616Z,99694.38
2023-02-19T13:47:28.592Z,99703.69
2023-02-19T13:50:09.967Z,99710.30
2023-02-19T13:52:46.624Z,99719.59
2023-02-19T13:55:53.145Z,99724.73
2023-02-19T13:58:56.308Z,99725.16
2023-02-19T14:02:12.322Z,99725.16
2023-02-19T14:04:50.544Z,99728.32
2023-02-19T14:07:55.549Z,99731.48
2023-02-19T14:11:03.611Z,99733.90
2023-02-19T14:14:30.421Z,99736.13
2023-02-19T14:17:26.161Z,99737.91
2023-02-19T14:20:01.402Z,99746.14
2023-02-19T14:23:01.688Z,99748.52
2023-02-19T14:25:56.698Z,99754.29
2023-02-19T14:28:39.262Z,99760.58
2023-02-19T14:31:18.107Z,99763.22
2023-02-19T14:33:53.581Z,99761.60
2023-02-19T14:36:45.309Z,99766.64
2023-02-19T14:39:21.371Z,99770.96
2023-02-19T14:41:58.407Z,99776.92
2023-02-19T14:44:36.958Z,99779.30
2023-02-19T14:47:15.060Z,99786.34
2023-02-19T14:49:53.825Z,99789.11
2023-02-19T14:52:30.681Z,99787.51
2023-02-19T14:55:10.239Z,99796.29
2023-02-19T14:57:46.402Z,99807.11
2023-02-19T15:00:30.124Z,99801.38
2023-02-19T15:03:04.505Z,99808.88
2023-02-19T15:05:39.079Z,99812.00
2023-02-19T15:08:21.537Z,99813.81
2023-02-19T15:10:54.500Z,99817.16
2023-02-19T15:13:30.729Z,99816.88
2023-02-19T15:16:03.805Z,99826.48
2023-02-19T15:18:38.385Z,99828.77
2023-02-19T15:21:21.115Z,99829.05
2023-02-19T15:23:55.321Z,99838.74
2023-02-19T15:26:34.472Z,99840.83
2023-02-19T15:29:11.199Z,99842.58
2023-02-19T15:31:49.920Z,99853.46
2023-02-19T15:34:24.438Z,99858.98
2023-02-19T15:37:01.413Z,99861.73
2023-02-19T15:39:39.976Z,99870.52
2023-02-19T15:42:18.491Z,99876.12
2023-02-19T15:44:57.309Z,99873.95
2023-02-19T15:47:36.026Z,99875.90
2023-02-19T15:50:17.331Z,99875.32
2023-02-19T15:52:59.434Z,99883.17
2023-02-19T15:55:35.444Z,99890.98
2023-02-19T15:58:16.343Z,99898.74
2023-02-19T16:00:54.577Z,99899.60
2023-02-19T16:03:29.631Z,99913.84
2023-02-19T16:06:05.419Z,99921.80
2023-02-19T16:08:40.377Z,99923.10
2023-02-19T16:11:30.475Z,99922.08
2023-02-19T16:14:30.156Z,99931.44
2023-02-19T16:17:14.174Z,99937.30
2023-02-19T16:19:54.203Z,99938.34
2023-02-19T16:22:31.192Z,99939.24
2023-02-19T16:25:08.123Z,99945.94
2023-02-19T16:27:43.458Z,99944.17
2023-02-19T16:30:28.650Z,99953.84
2023-02-19T16:33:33.097Z,99965.27
2023-02-19T16:39:20.130Z,99977.94
2023-02-19T16:42:21.555Z,99990.80
2023-02-19T16:44:54.336Z,100001.35
2023-02-19T16:47:32.982Z,100006.52
2023-02-19T16:50:12.848Z,100006.79
2023-02-19T16:52:56.331Z,100010.30
2023-02-19T16:55:30.508Z,100015.61
2023-02-19T16:58:02.961Z,100020.70
2023-02-19T17:00:35.390Z,100028.65
2023-02-19T17:03:12.197Z,100035.31
2023-02-19T17:05:45.077Z,100038.55
2023-02-19T17:08:34.279Z,100042.93
2023-02-19T17:11:11.931Z,100036.31
2023-02-19T17:13:46.426Z,100042.38
2023-02-19T17:16:23.264Z,100048.77
2023-02-19T17:18:59.139Z,100056.71
2023-02-19T17:21:33.564Z,100066.67
2023-02-19T17:24:06.399Z,100068.45
2023-02-19T17:26:39.580Z,100073.45
2023-02-19T17:29:18.539Z,100080.20
2023-02-19T17:31:51.750Z,100083.48
2023-02-19T17:34:24.514Z,100089.13
2023-02-19T17:36:56.998Z,100094.88
2023-02-19T17:39:30.169Z,100099.45
2023-02-19T17:42:02.683Z,100102.45
2023-02-19T17:44:34.838Z,100111.11
2023-02-19T17:47:07.551Z,100108.75
2023-02-19T17:49:39.874Z,100113.45
2023-02-19T17:52:17.178Z,100117.65
2023-02-19T17:54:49.468Z,100124.24
2023-02-19T17:57:22.103Z,100127.09
2023-02-19T17:59:54.671Z,100123.11
2023-02-19T18:02:27.287Z,100121.21
2023-02-19T18:04:59.459Z,100128.48
2023-02-19T18:07:33.194Z,100132.59
2023-02-19T18:10:06.301Z,100129.91
2023-02-19T18:12:39.153Z,100133.34
2023-02-19T18:15:17.248Z,100133.84
2023-02-19T18:17:50.514Z,100133.85
2023-02-19T18:20:25.122Z,100131.02
2023-02-19T18:22:58.025Z,100135.60
2023-02-19T18:25:30.592Z,100146.11
2023-02-19T18:28:02.886Z,100147.73
2023-02-19T18:30:35.856Z,100148.30
2023-02-19T18:33:13.854Z,100152.05
2023-02-19T18:35:47.526Z,100153.87
2023-02-19T18:38:19.783Z,100157.23
2023-02-19T18:40:52.118Z,100162.73
2023-02-19T18:43:24.603Z,100163.64
2023-02-19T18:45:56.989Z,100163.64
2023-02-19T18:48:29.725Z,100164.23
2023-02-19T18:51:01.945Z,100165.55
2023-02-19T18:53:34.279Z,100175.04
2023-02-19T18:56:09.234Z,100179.52
2023-02-19T18:58:41.566Z,100189.84
2023-02-19T19:01:15.981Z,100193.41
2023-02-19T19:03:48.519Z,100199.02
2023-02-19T19:06:20.800Z,100200.32
2023-02-19T19:08:53.348Z,100203.42
2023-02-19T19:11:27.019Z,100202.77
2023-02-19T19:13:59.655Z,100202.72
2023-02-19T19:16:33.307Z,100207.92
2023-02-19T19:19:06.146Z,100215.16
2023-02-19T19:21:38.600Z,100214.61
2023-02-19T19:24:11.754Z,100222.33
2023-02-19T19:26:48.389Z,100221.36
2023-02-19T19:29:22.430Z,100221.68
2023-02-19T19:31:54.735Z,100220.33
2023-02-19T19:34:27.126Z,100220.38
2023-02-19T19:36:59.752Z,100222.50
2023-02-19T19:39:32.272Z,100224.54
2023-02-19T19:42:05.108Z,100227.30
2023-02-19T19:44:37.838Z,100236.08
2023-02-19T19:47:10.315Z,100235.20
2023-02-19T19:49:43.199Z,100231.40
2023-02-19T19:52:16.036Z,100227.30
2023-02-19T19:54:48.349Z,100232.79
2023-02-19T19:57:27.499Z,100231.98
2023-02-19T20:00:02.409Z,100227.27
2023-02-19T20:02:46.957Z,100230.15
2023-02-19T20:05:19.561Z,100229.45
2023-02-19T20:07:52.167Z,100232.38
2023-02-19T20:10:24.812Z,100233.77
2023-02-19T20:12:56.973Z,100237.95
2023-02-19T20:15:29.150Z,100238.28
2023-02-19T20:18:02.845Z,100237.56
2023-02-19T20:20:35.321Z,100235.23
2023-02-19T20:23:07.905Z,100236.11
2023-02-19T20:25:40.582Z,100242.45
2023-02-19T20:28:12.854Z,100251.39
2023-02-19T20:30:45.378Z,100254.84
2023-02-19T20:33:17.873Z,100256.21
2023-02-19T20:35:50.442Z,100258.48
2023-02-19T20:38:22.682Z,100258.14
2023-02-19T20:40:54.825Z,100261.62
2023-02-19T20:43:28.537Z,100263.05
2023-02-19T20:46:01.454Z,100264.13
2023-02-19T20:48:33.723Z,100266.73
2023-02-19T20:51:06.348Z,100274.27
2023-02-19T20:53:40.874Z,100273.81
2023-02-19T20:56:13.754Z,100274.89
2023-02-19T20:58:46.619Z,100273.53
2023-02-19T21:01:18.936Z,100279.08
2023-02-19T21:03:51.593Z,100286.17
2023-02-19T21:06:24.786Z,100294.23
2023-02-19T21:08:57.162Z,100295.17
2023-02-19T21:11:31.205Z,100302.42
2023-02-19T21:14:03.320Z,100288.54
2023-02-19T21:16:36.014Z,100295.09
2023-02-19T21:19:08.496Z,100301.71
2023-02-19T21:21:40.884Z,100302.35
2023-02-19T21:24:16.132Z,100307.59
2023-02-19T21:26:48.382Z,100313.40
2023-02-19T21:29:22.455Z,100315.08
2023-02-19T21:31:56.410Z,100323.09
2023-02-19T21:34:30.513Z,100322.79
2023-02-19T21:37:02.657Z,100322.11
2023-02-19T21:39:34.986Z,100326.14
2023-02-19T21:42:07.301Z,100327.64
2023-02-19T21:44:41.254Z,100331.05
2023-02-19T21:47:14.742Z,100330.66
2023-02-19T21:49:47.218Z,100330.99
2023-02-19T21:52:19.881Z,100337.32
2023-02-19T21:54:52.388Z,100342.05
2023-02-19T21:57:24.624Z,100342.24
2023-02-19T21:59:57.229Z,100343.83
2023-02-19T22:02:30.665Z,100346.02
2023-02-19T22:05:03.334Z,100339.77
2023-02-19T22:07:35.628Z,100345.39
2023-02-19T22:10:09.791Z,100348.17
2023-02-19T22:12:41.988Z,100353.53
2023-02-19T22:15:15.383Z,100356.64
2023-02-19T22:17:47.447Z,100358.56
2023-02-19T22:20:19.946Z,100357.69
2023-02-19T22:22:52.139Z,100365.16
2023-02-19T22:25:24.561Z,100365.30
2023-02-19T22:27:57.254Z,100364.74
2023-02-19T22:30:30.986Z,100365.08
2023-02-19T22:33:03.471Z,100367.25
2023-02-19T22:35:36.221Z,100369.64
2023-02-19T22:38:08.258Z,100368.56
2023-02-19T22:40:40.613Z,100369.77
2023-02-19T22:43:12.721Z,100375.04
2023-02-19T22:45:44.978Z,100378.77
2023-02-19T22:48:29.420Z,100382.30
2023-02-19T22:51:02.718Z,100394.02
2023-02-19T22:53:34.848Z,100394.69
2023-02-19T22:56:07.498Z,100394.29
2023-02-19T22:58:39.560Z,100399.77
2023-02-19T23:01:13.044Z,100400.41
2023-02-19T23:03:54.348Z,100404.31
2023-02-19T23:06:29.660Z,100405.72
2023-02-19T23:09:03.724Z,100408.96
2023-02-19T23:11:39.399Z,100415.05
2023-02-19T23:14:11.492Z,100415.02
2023-02-19T23:16:43.555Z,100412.95
2023-02-19T23:19:16.965Z,100413.86
2023-02-19T23:21:49.526Z,100421.95
2023-02-19T23:24:22.043Z,100419.43
2023-02-19T23:26:55.118Z,100419.85
2023-02-19T23:29:30.549Z,100420.17
2023-02-19T23:32:02.723Z,100418.17
2023-02-19T23:34:35.215Z,100414.91
2023-02-19T23:37:07.996Z,100413.85
2023-02-19T23:39:40.306Z,100411.48
2023-02-19T23:42:16.932Z,100405.27
2023-02-19T23:44:50.574Z,100399.73
2023-02-19T23:47:23.191Z,100398.88
2023-02-19T23:49:55.448Z,100393.70
2023-02-19T23:52:27.678Z,100393.88
2023-02-19T23:54:59.967Z,100390.47
2023-02-19T23:57:32.223Z,100388.40
